sensor_id;sensor_type;location;lat;lon;timestamp;temperature;humidity
65884;HTU21D;52663;51.038;5.858;2022-08-07T00:01:35;18.15;58.01
65884;HTU21D;52663;51.038;5.858;2022-08-07T00:04:02;18.06;58.32
65884;HTU21D;52663;51.038;5.858;2022-08-07T00:06:27;18.03;58.57
65884;HTU21D;52663;51.038;5.858;2022-08-07T00:08:53;17.98;58.69
65884;HTU21D;52663;51.038;5.858;2022-08-07T00:11:19;18.03;58.67
65884;HTU21D;52663;51.038;5.858;2022-08-07T00:13:45;17.98;58.45
65884;HTU21D;52663;51.038;5.858;2022-08-07T00:16:13;17.68;59.18
65884;HTU21D;52663;51.038;5.858;2022-08-07T00:18:39;17.53;59.80
65884;HTU21D;52663;51.038;5.858;2022-08-07T00:21:08;17.55;60.05
65884;HTU21D;52663;51.038;5.858;2022-08-07T00:23:35;17.63;59.96
65884;HTU21D;52663;51.038;5.858;2022-08-07T00:26:04;17.68;59.98
65884;HTU21D;52663;51.038;5.858;2022-08-07T00:28:31;17.72;59.76
65884;HTU21D;52663;51.038;5.858;2022-08-07T00:30:57;17.74;59.71
65884;HTU21D;52663;51.038;5.858;2022-08-07T00:33:23;17.77;59.54
65884;HTU21D;52663;51.038;5.858;2022-08-07T00:35:56;17.82;59.47
65884;HTU21D;52663;51.038;5.858;2022-08-07T00:38:23;17.84;59.43
65884;HTU21D;52663;51.038;5.858;2022-08-07T00:40:49;17.87;59.40
65884;HTU21D;52663;51.038;5.858;2022-08-07T00:43:15;17.83;59.48
65884;HTU21D;52663;51.038;5.858;2022-08-07T00:45:41;17.81;59.51
65884;HTU21D;52663;51.038;5.858;2022-08-07T00:48:09;17.78;59.57
65884;HTU21D;52663;51.038;5.858;2022-08-07T00:50:36;17.82;59.52
65884;HTU21D;52663;51.038;5.858;2022-08-07T00:53:02;17.76;59.71
65884;HTU21D;52663;51.038;5.858;2022-08-07T00:55:29;17.72;59.68
65884;HTU21D;52663;51.038;5.858;2022-08-07T00:57:55;17.64;59.76
65884;HTU21D;52663;51.038;5.858;2022-08-07T01:00:21;17.53;60.07
65884;HTU21D;52663;51.038;5.858;2022-08-07T01:02:48;17.49;60.34
65884;HTU21D;52663;51.038;5.858;2022-08-07T01:05:15;17.48;60.43
65884;HTU21D;52663;51.038;5.858;2022-08-07T01:07:40;17.40;60.51
65884;HTU21D;52663;51.038;5.858;2022-08-07T01:10:08;17.34;60.70
65884;HTU21D;52663;51.038;5.858;2022-08-07T01:12:35;17.31;60.76
65884;HTU21D;52663;51.038;5.858;2022-08-07T01:15:03;17.32;60.86
65884;HTU21D;52663;51.038;5.858;2022-08-07T01:17:31;17.33;60.92
65884;HTU21D;52663;51.038;5.858;2022-08-07T01:20:08;17.34;60.96
65884;HTU21D;52663;51.038;5.858;2022-08-07T01:22:39;17.31;61.04
65884;HTU21D;52663;51.038;5.858;2022-08-07T01:25:07;17.33;61.02
65884;HTU21D;52663;51.038;5.858;2022-08-07T01:27:34;17.36;60.89
65884;HTU21D;52663;51.038;5.858;2022-08-07T01:30:03;17.36;60.74
65884;HTU21D;52663;51.038;5.858;2022-08-07T01:32:29;17.33;60.76
65884;HTU21D;52663;51.038;5.858;2022-08-07T01:34:56;17.32;60.78
65884;HTU21D;52663;51.038;5.858;2022-08-07T01:37:22;17.29;61.00
65884;HTU21D;52663;51.038;5.858;2022-08-07T01:39:51;17.24;61.18
65884;HTU21D;52663;51.038;5.858;2022-08-07T01:42:25;17.22;61.41
65884;HTU21D;52663;51.038;5.858;2022-08-07T01:44:52;17.24;61.35
65884;HTU21D;52663;51.038;5.858;2022-08-07T01:47:19;17.24;61.23
65884;HTU21D;52663;51.038;5.858;2022-08-07T01:49:45;17.19;61.31
65884;HTU21D;52663;51.038;5.858;2022-08-07T01:52:13;17.18;61.31
65884;HTU21D;52663;51.038;5.858;2022-08-07T01:54:41;17.15;61.49
65884;HTU21D;52663;51.038;5.858;2022-08-07T01:59:45;17.04;61.52
65884;HTU21D;52663;51.038;5.858;2022-08-07T02:02:19;16.96;61.67
65884;HTU21D;52663;51.038;5.858;2022-08-07T02:04:53;16.92;61.76
65884;HTU21D;52663;51.038;5.858;2022-08-07T02:07:23;16.79;62.13
65884;HTU21D;52663;51.038;5.858;2022-08-07T02:09:54;16.76;62.40
65884;HTU21D;52663;51.038;5.858;2022-08-07T02:12:24;16.75;62.52
65884;HTU21D;52663;51.038;5.858;2022-08-07T02:14:56;16.73;62.50
65884;HTU21D;52663;51.038;5.858;2022-08-07T02:17:32;16.67;62.50
65884;HTU21D;52663;51.038;5.858;2022-08-07T02:20:00;16.57;62.86
65884;HTU21D;52663;51.038;5.858;2022-08-07T02:22:31;16.52;63.16
65884;HTU21D;52663;51.038;5.858;2022-08-07T02:25:01;16.50;63.21
65884;HTU21D;52663;51.038;5.858;2022-08-07T02:27:31;16.48;63.27
65884;HTU21D;52663;51.038;5.858;2022-08-07T02:29:59;16.47;63.41
65884;HTU21D;52663;51.038;5.858;2022-08-07T02:32:32;16.45;63.44
65884;HTU21D;52663;51.038;5.858;2022-08-07T02:35:02;16.41;63.69
65884;HTU21D;52663;51.038;5.858;2022-08-07T02:37:35;16.43;63.78
65884;HTU21D;52663;51.038;5.858;2022-08-07T02:40:07;16.46;63.66
65884;HTU21D;52663;51.038;5.858;2022-08-07T02:42:34;16.46;63.52
65884;HTU21D;52663;51.038;5.858;2022-08-07T02:45:02;16.45;63.48
65884;HTU21D;52663;51.038;5.858;2022-08-07T02:47:30;16.46;63.52
65884;HTU21D;52663;51.038;5.858;2022-08-07T02:50:09;16.48;63.50
65884;HTU21D;52663;51.038;5.858;2022-08-07T02:52:38;16.47;63.50
65884;HTU21D;52663;51.038;5.858;2022-08-07T02:55:25;16.45;63.60
65884;HTU21D;52663;51.038;5.858;2022-08-07T02:57:57;16.43;63.63
65884;HTU21D;52663;51.038;5.858;2022-08-07T03:00:27;16.41;63.61
65884;HTU21D;52663;51.038;5.858;2022-08-07T03:02:55;16.41;63.58
65884;HTU21D;52663;51.038;5.858;2022-08-07T03:05:23;16.37;63.55
65884;HTU21D;52663;51.038;5.858;2022-08-07T03:07:51;16.35;63.54
65884;HTU21D;52663;51.038;5.858;2022-08-07T03:10:18;16.32;63.63
65884;HTU21D;52663;51.038;5.858;2022-08-07T03:12:46;16.33;63.53
65884;HTU21D;52663;51.038;5.858;2022-08-07T03:15:14;16.32;63.56
65884;HTU21D;52663;51.038;5.858;2022-08-07T03:17:41;16.24;63.90
65884;HTU21D;52663;51.038;5.858;2022-08-07T03:20:10;16.19;63.95
65884;HTU21D;52663;51.038;5.858;2022-08-07T03:22:37;16.16;64.10
65884;HTU21D;52663;51.038;5.858;2022-08-07T03:25:05;16.12;64.23
65884;HTU21D;52663;51.038;5.858;2022-08-07T03:27:41;16.11;64.29
65884;HTU21D;52663;51.038;5.858;2022-08-07T03:30:11;16.11;64.31
65884;HTU21D;52663;51.038;5.858;2022-08-07T03:32:42;16.08;64.41
65884;HTU21D;52663;51.038;5.858;2022-08-07T03:35:16;16.08;64.39
65884;HTU21D;52663;51.038;5.858;2022-08-07T03:37:45;16.08;64.40
65884;HTU21D;52663;51.038;5.858;2022-08-07T03:40:13;16.06;64.53
65884;HTU21D;52663;51.038;5.858;2022-08-07T03:42:40;16.02;64.56
65884;HTU21D;52663;51.038;5.858;2022-08-07T03:45:08;15.97;64.72
65884;HTU21D;52663;51.038;5.858;2022-08-07T03:47:36;15.90;65.03
65884;HTU21D;52663;51.038;5.858;2022-08-07T03:50:03;15.82;65.26
65884;HTU21D;52663;51.038;5.858;2022-08-07T03:52:35;15.71;65.54
65884;HTU21D;52663;51.038;5.858;2022-08-07T03:55:04;15.61;65.82
65884;HTU21D;52663;51.038;5.858;2022-08-07T03:57:31;15.56;66.08
65884;HTU21D;52663;51.038;5.858;2022-08-07T03:59:58;15.56;66.23
65884;HTU21D;52663;51.038;5.858;2022-08-07T04:02:25;15.58;66.08
65884;HTU21D;52663;51.038;5.858;2022-08-07T04:04:51;15.63;65.96
65884;HTU21D;52663;51.038;5.858;2022-08-07T04:07:18;15.68;65.87
65884;HTU21D;52663;51.038;5.858;2022-08-07T04:09:48;15.66;65.85
65884;HTU21D;52663;51.038;5.858;2022-08-07T04:12:15;15.67;65.86
65884;HTU21D;52663;51.038;5.858;2022-08-07T04:14:42;15.66;65.97
65884;HTU21D;52663;51.038;5.858;2022-08-07T04:17:11;15.67;65.90
65884;HTU21D;52663;51.038;5.858;2022-08-07T04:19:39;15.67;65.78
65884;HTU21D;52663;51.038;5.858;2022-08-07T04:22:06;15.67;65.66
65884;HTU21D;52663;51.038;5.858;2022-08-07T04:24:37;15.56;65.93
65884;HTU21D;52663;51.038;5.858;2022-08-07T04:27:05;15.46;66.32
65884;HTU21D;52663;51.038;5.858;2022-08-07T04:29:34;15.42;66.54
65884;HTU21D;52663;51.038;5.858;2022-08-07T04:32:00;15.36;66.70
65884;HTU21D;52663;51.038;5.858;2022-08-07T04:34:28;15.33;66.70
65884;HTU21D;52663;51.038;5.858;2022-08-07T04:36:55;15.28;66.84
65884;HTU21D;52663;51.038;5.858;2022-08-07T04:39:21;15.31;66.99
65884;HTU21D;52663;51.038;5.858;2022-08-07T04:41:47;15.41;66.67
65884;HTU21D;52663;51.038;5.858;2022-08-07T04:44:15;15.47;66.43
65884;HTU21D;52663;51.038;5.858;2022-08-07T04:49:38;15.60;66.08
65884;HTU21D;52663;51.038;5.858;2022-08-07T04:52:42;15.67;66.09
65884;HTU21D;52663;51.038;5.858;2022-08-07T04:55:33;15.72;66.15
65884;HTU21D;52663;51.038;5.858;2022-08-07T04:58:18;15.78;65.93
65884;HTU21D;52663;51.038;5.858;2022-08-07T05:01:09;15.76;66.25
65884;HTU21D;52663;51.038;5.858;2022-08-07T05:06:12;15.80;66.49
65884;HTU21D;52663;51.038;5.858;2022-08-07T05:09:16;15.90;66.43
65884;HTU21D;52663;51.038;5.858;2022-08-07T05:11:47;16.01;66.18
65884;HTU21D;52663;51.038;5.858;2022-08-07T05:14:27;16.10;66.01
65884;HTU21D;52663;51.038;5.858;2022-08-07T05:16:59;16.22;65.76
65884;HTU21D;52663;51.038;5.858;2022-08-07T05:19:33;16.33;65.75
65884;HTU21D;52663;51.038;5.858;2022-08-07T05:22:02;16.39;65.73
65884;HTU21D;52663;51.038;5.858;2022-08-07T05:24:34;16.39;65.58
65884;HTU21D;52663;51.038;5.858;2022-08-07T05:27:01;16.40;65.88
65884;HTU21D;52663;51.038;5.858;2022-08-07T05:29:29;16.42;65.92
65884;HTU21D;52663;51.038;5.858;2022-08-07T05:31:57;16.46;66.05
65884;HTU21D;52663;51.038;5.858;2022-08-07T05:34:30;16.52;66.14
65884;HTU21D;52663;51.038;5.858;2022-08-07T05:36:57;16.64;66.01
65884;HTU21D;52663;51.038;5.858;2022-08-07T05:39:30;16.78;65.69
65884;HTU21D;52663;51.038;5.858;2022-08-07T05:41:59;16.90;65.53
65884;HTU21D;52663;51.038;5.858;2022-08-07T05:44:33;16.99;65.24
65884;HTU21D;52663;51.038;5.858;2022-08-07T05:47:01;17.03;65.16
65884;HTU21D;52663;51.038;5.858;2022-08-07T05:49:28;17.09;64.99
65884;HTU21D;52663;51.038;5.858;2022-08-07T05:51:55;17.14;64.99
65884;HTU21D;52663;51.038;5.858;2022-08-07T05:54:23;17.13;65.10
65884;HTU21D;52663;51.038;5.858;2022-08-07T05:56:48;17.08;65.32
65884;HTU21D;52663;51.038;5.858;2022-08-07T05:59:18;17.04;65.57
65884;HTU21D;52663;51.038;5.858;2022-08-07T06:01:49;17.06;65.88
65884;HTU21D;52663;51.038;5.858;2022-08-07T06:04:19;17.11;65.85
65884;HTU21D;52663;51.038;5.858;2022-08-07T06:06:46;17.21;65.74
65884;HTU21D;52663;51.038;5.858;2022-08-07T06:09:15;17.30;65.57
65884;HTU21D;52663;51.038;5.858;2022-08-07T06:11:44;17.40;65.40
65884;HTU21D;52663;51.038;5.858;2022-08-07T06:14:11;17.46;65.29
65884;HTU21D;52663;51.038;5.858;2022-08-07T06:16:38;17.55;65.11
65884;HTU21D;52663;51.038;5.858;2022-08-07T06:19:06;17.68;64.53
65884;HTU21D;52663;51.038;5.858;2022-08-07T06:21:35;17.80;64.21
65884;HTU21D;52663;51.038;5.858;2022-08-07T06:24:02;17.88;64.05
65884;HTU21D;52663;51.038;5.858;2022-08-07T06:26:28;18.00;63.88
65884;HTU21D;52663;51.038;5.858;2022-08-07T06:28:57;18.11;63.68
65884;HTU21D;52663;51.038;5.858;2022-08-07T06:31:25;18.24;63.16
65884;HTU21D;52663;51.038;5.858;2022-08-07T06:33:53;18.37;62.61
65884;HTU21D;52663;51.038;5.858;2022-08-07T06:36:19;18.52;62.28
65884;HTU21D;52663;51.038;5.858;2022-08-07T06:38:53;18.64;61.89
65884;HTU21D;52663;51.038;5.858;2022-08-07T06:43:53;18.94;60.73
65884;HTU21D;52663;51.038;5.858;2022-08-07T06:46:20;18.99;60.54
65884;HTU21D;52663;51.038;5.858;2022-08-07T06:48:47;19.07;60.23
65884;HTU21D;52663;51.038;5.858;2022-08-07T06:51:21;19.21;59.90
65884;HTU21D;52663;51.038;5.858;2022-08-07T06:53:51;19.31;59.48
65884;HTU21D;52663;51.038;5.858;2022-08-07T06:56:19;19.37;59.31
65884;HTU21D;52663;51.038;5.858;2022-08-07T06:59:11;19.39;59.23
65884;HTU21D;52663;51.038;5.858;2022-08-07T07:01:44;19.46;58.92
65884;HTU21D;52663;51.038;5.858;2022-08-07T07:04:11;19.46;58.74
65884;HTU21D;52663;51.038;5.858;2022-08-07T07:06:41;19.56;58.54
65884;HTU21D;52663;51.038;5.858;2022-08-07T07:09:29;19.68;58.28
65884;HTU21D;52663;51.038;5.858;2022-08-07T07:15:02;19.89;57.87
65884;HTU21D;52663;51.038;5.858;2022-08-07T07:17:40;19.98;57.80
65884;HTU21D;52663;51.038;5.858;2022-08-07T07:20:16;20.05;57.76
65884;HTU21D;52663;51.038;5.858;2022-08-07T07:22:43;20.06;57.68
65884;HTU21D;52663;51.038;5.858;2022-08-07T07:25:12;20.12;57.77
65884;HTU21D;52663;51.038;5.858;2022-08-07T07:28:31;20.17;57.34
65884;HTU21D;52663;51.038;5.858;2022-08-07T07:30:35;20.33;56.53
65884;HTU21D;52663;51.038;5.858;2022-08-07T07:33:04;20.34;56.38
65884;HTU21D;52663;51.038;5.858;2022-08-07T07:35:33;20.40;56.13
65884;HTU21D;52663;51.038;5.858;2022-08-07T07:38:01;20.51;55.90
65884;HTU21D;52663;51.038;5.858;2022-08-07T07:40:30;20.68;55.60
65884;HTU21D;52663;51.038;5.858;2022-08-07T07:43:04;20.77;55.13
65884;HTU21D;52663;51.038;5.858;2022-08-07T07:45:31;20.87;54.83
65884;HTU21D;52663;51.038;5.858;2022-08-07T07:47:59;20.99;54.36
65884;HTU21D;52663;51.038;5.858;2022-08-07T07:50:27;21.14;53.71
65884;HTU21D;52663;51.038;5.858;2022-08-07T07:52:55;21.25;53.43
65884;HTU21D;52663;51.038;5.858;2022-08-07T07:55:24;21.39;52.95
65884;HTU21D;52663;51.038;5.858;2022-08-07T07:57:53;21.51;52.40
65884;HTU21D;52663;51.038;5.858;2022-08-07T08:00:23;21.65;51.98
65884;HTU21D;52663;51.038;5.858;2022-08-07T08:02:56;21.73;52.01
65884;HTU21D;52663;51.038;5.858;2022-08-07T08:05:22;21.76;52.24
65884;HTU21D;52663;51.038;5.858;2022-08-07T08:07:49;21.88;52.49
65884;HTU21D;52663;51.038;5.858;2022-08-07T08:10:18;22.02;52.63
65884;HTU21D;52663;51.038;5.858;2022-08-07T08:12:45;22.16;52.17
65884;HTU21D;52663;51.038;5.858;2022-08-07T08:15:13;22.21;52.01
65884;HTU21D;52663;51.038;5.858;2022-08-07T08:17:41;22.27;52.06
65884;HTU21D;52663;51.038;5.858;2022-08-07T08:20:09;22.41;51.47
65884;HTU21D;52663;51.038;5.858;2022-08-07T08:22:39;22.53;50.99
65884;HTU21D;52663;51.038;5.858;2022-08-07T08:25:25;22.60;50.21
65884;HTU21D;52663;51.038;5.858;2022-08-07T08:28:20;22.49;49.85
65884;HTU21D;52663;51.038;5.858;2022-08-07T08:31:00;22.51;50.02
65884;HTU21D;52663;51.038;5.858;2022-08-07T08:33:30;22.68;49.40
65884;HTU21D;52663;51.038;5.858;2022-08-07T08:35:58;22.87;48.92
65884;HTU21D;52663;51.038;5.858;2022-08-07T08:38:31;23.05;48.36
65884;HTU21D;52663;51.038;5.858;2022-08-07T08:41:10;23.22;47.63
65884;HTU21D;52663;51.038;5.858;2022-08-07T08:44:14;23.44;46.60
65884;HTU21D;52663;51.038;5.858;2022-08-07T08:46:59;23.60;45.99
65884;HTU21D;52663;51.038;5.858;2022-08-07T08:52:35;23.88;44.91
65884;HTU21D;52663;51.038;5.858;2022-08-07T09:00:55;24.53;42.18
65884;HTU21D;52663;51.038;5.858;2022-08-07T09:03:33;24.75;41.51
65884;HTU21D;52663;51.038;5.858;2022-08-07T09:06:20;24.97;39.60
65884;HTU21D;52663;51.038;5.858;2022-08-07T09:18:12;25.73;36.18
65884;HTU21D;52663;51.038;5.858;2022-08-07T09:20:50;26.03;34.86
65884;HTU21D;52663;51.038;5.858;2022-08-07T09:29:16;26.52;33.68
65884;HTU21D;52663;51.038;5.858;2022-08-07T09:31:58;26.66;33.47
65884;HTU21D;52663;51.038;5.858;2022-08-07T09:34:39;26.64;33.59
65884;HTU21D;52663;51.038;5.858;2022-08-07T09:46:16;27.50;29.56
65884;HTU21D;52663;51.038;5.858;2022-08-07T09:54:38;28.18;28.35
65884;HTU21D;52663;51.038;5.858;2022-08-07T10:11:47;28.93;28.12
65884;HTU21D;52663;51.038;5.858;2022-08-07T10:17:17;29.64;26.23
65884;HTU21D;52663;51.038;5.858;2022-08-07T10:20:18;29.82;25.86
65884;HTU21D;52663;51.038;5.858;2022-08-07T10:23:05;30.07;25.14
65884;HTU21D;52663;51.038;5.858;2022-08-07T10:31:52;31.24;23.08
65884;HTU21D;52663;51.038;5.858;2022-08-07T10:37:35;31.81;21.58
65884;HTU21D;52663;51.038;5.858;2022-08-07T10:40:13;32.17;21.62
65884;HTU21D;52663;51.038;5.858;2022-08-07T10:45:59;32.49;21.21
65884;HTU21D;52663;51.038;5.858;2022-08-07T10:51:58;32.00;21.24
65884;HTU21D;52663;51.038;5.858;2022-08-07T10:54:31;32.31;20.86
65884;HTU21D;52663;51.038;5.858;2022-08-07T10:57:26;32.88;20.28
65884;HTU21D;52663;51.038;5.858;2022-08-07T11:02:34;32.82;20.35
65884;HTU21D;52663;51.038;5.858;2022-08-07T11:08:01;33.18;19.91
65884;HTU21D;52663;51.038;5.858;2022-08-07T11:10:51;33.57;19.30
65884;HTU21D;52663;51.038;5.858;2022-08-07T11:16:23;34.35;17.98
65884;HTU21D;52663;51.038;5.858;2022-08-07T11:19:24;34.79;17.04
65884;HTU21D;52663;51.038;5.858;2022-08-07T11:24:50;35.10;17.03
65884;HTU21D;52663;51.038;5.858;2022-08-07T11:27:32;34.82;17.04
65884;HTU21D;52663;51.038;5.858;2022-08-07T11:30:16;35.05;16.64
65884;HTU21D;52663;51.038;5.858;2022-08-07T11:33:01;35.58;16.13
65884;HTU21D;52663;51.038;5.858;2022-08-07T11:38:32;36.27;15.07
65884;HTU21D;52663;51.038;5.858;2022-08-07T11:41:13;36.55;14.75
65884;HTU21D;52663;51.038;5.858;2022-08-07T11:43:59;36.91;14.68
65884;HTU21D;52663;51.038;5.858;2022-08-07T11:49:49;36.86;14.68
65884;HTU21D;52663;51.038;5.858;2022-08-07T11:57:42;36.63;14.83
65884;HTU21D;52663;51.038;5.858;2022-08-07T12:00:19;36.91;14.32
65884;HTU21D;52663;51.038;5.858;2022-08-07T12:06:03;37.34;14.10
65884;HTU21D;52663;51.038;5.858;2022-08-07T12:08:52;36.69;14.73
65884;HTU21D;52663;51.038;5.858;2022-08-07T12:11:30;36.26;15.96
65884;HTU21D;52663;51.038;5.858;2022-08-07T12:14:18;36.64;15.66
65884;HTU21D;52663;51.038;5.858;2022-08-07T12:16:52;36.63;15.68
65884;HTU21D;52663;51.038;5.858;2022-08-07T12:22:27;36.25;16.58
65884;HTU21D;52663;51.038;5.858;2022-08-07T12:25:05;36.04;16.71
65884;HTU21D;52663;51.038;5.858;2022-08-07T12:27:59;36.23;16.61
65884;HTU21D;52663;51.038;5.858;2022-08-07T12:30:32;36.31;16.61
65884;HTU21D;52663;51.038;5.858;2022-08-07T12:33:28;35.92;17.12
65884;HTU21D;52663;51.038;5.858;2022-08-07T12:35:57;35.95;16.77
65884;HTU21D;52663;51.038;5.858;2022-08-07T12:38:25;36.12;16.23
65884;HTU21D;52663;51.038;5.858;2022-08-07T12:41:37;36.59;15.49
65884;HTU21D;52663;51.038;5.858;2022-08-07T12:44:07;35.96;16.08
65884;HTU21D;52663;51.038;5.858;2022-08-07T12:46:53;35.27;17.18
65884;HTU21D;52663;51.038;5.858;2022-08-07T12:52:00;35.67;17.29
65884;HTU21D;52663;51.038;5.858;2022-08-07T12:54:43;35.68;16.51
65884;HTU21D;52663;51.038;5.858;2022-08-07T12:57:13;34.41;18.18
65884;HTU21D;52663;51.038;5.858;2022-08-07T12:59:42;33.48;19.62
65884;HTU21D;52663;51.038;5.858;2022-08-07T13:05:08;32.82;20.85
65884;HTU21D;52663;51.038;5.858;2022-08-07T13:08:11;32.59;21.48
65884;HTU21D;52663;51.038;5.858;2022-08-07T13:16:54;31.97;20.69
65884;HTU21D;52663;51.038;5.858;2022-08-07T13:19:48;31.83;21.69
65884;HTU21D;52663;51.038;5.858;2022-08-07T13:22:46;31.51;22.09
65884;HTU21D;52663;51.038;5.858;2022-08-07T13:25:28;31.13;22.92
65884;HTU21D;52663;51.038;5.858;2022-08-07T13:28:07;31.01;23.65
65884;HTU21D;52663;51.038;5.858;2022-08-07T13:30:39;30.78;23.66
65884;HTU21D;52663;51.038;5.858;2022-08-07T13:35:49;30.30;24.36
65884;HTU21D;52663;51.038;5.858;2022-08-07T13:44:11;29.93;25.36
65884;HTU21D;52663;51.038;5.858;2022-08-07T13:46:41;29.95;25.52
65884;HTU21D;52663;51.038;5.858;2022-08-07T13:49:10;29.93;25.37
65884;HTU21D;52663;51.038;5.858;2022-08-07T13:51:40;30.01;25.36
65884;HTU21D;52663;51.038;5.858;2022-08-07T13:54:11;29.86;25.60
65884;HTU21D;52663;51.038;5.858;2022-08-07T13:56:39;29.79;25.74
65884;HTU21D;52663;51.038;5.858;2022-08-07T13:59:26;29.72;26.02
65884;HTU21D;52663;51.038;5.858;2022-08-07T14:02:05;29.60;26.29
65884;HTU21D;52663;51.038;5.858;2022-08-07T14:04:53;29.71;25.72
65884;HTU21D;52663;51.038;5.858;2022-08-07T14:07:33;29.44;25.97
65884;HTU21D;52663;51.038;5.858;2022-08-07T14:10:01;29.17;26.88
65884;HTU21D;52663;51.038;5.858;2022-08-07T14:16:03;29.27;26.57
65884;HTU21D;52663;51.038;5.858;2022-08-07T14:18:37;29.35;26.74
65884;HTU21D;52663;51.038;5.858;2022-08-07T14:21:10;29.38;26.92
65884;HTU21D;52663;51.038;5.858;2022-08-07T14:23:45;29.35;26.23
65884;HTU21D;52663;51.038;5.858;2022-08-07T14:26:14;29.27;26.20
65884;HTU21D;52663;51.038;5.858;2022-08-07T14:28:46;29.24;26.04
65884;HTU21D;52663;51.038;5.858;2022-08-07T14:31:13;29.09;26.20
65884;HTU21D;52663;51.038;5.858;2022-08-07T14:33:39;28.91;26.55
65884;HTU21D;52663;51.038;5.858;2022-08-07T14:36:07;28.83;26.62
65884;HTU21D;52663;51.038;5.858;2022-08-07T14:38:34;28.59;26.55
65884;HTU21D;52663;51.038;5.858;2022-08-07T14:41:10;28.52;26.55
65884;HTU21D;52663;51.038;5.858;2022-08-07T14:43:42;28.40;27.33
65884;HTU21D;52663;51.038;5.858;2022-08-07T14:46:12;28.42;27.24
65884;HTU21D;52663;51.038;5.858;2022-08-07T14:48:45;28.28;26.94
65884;HTU21D;52663;51.038;5.858;2022-08-07T14:51:19;28.28;27.38
65884;HTU21D;52663;51.038;5.858;2022-08-07T14:53:52;28.38;27.33
65884;HTU21D;52663;51.038;5.858;2022-08-07T14:56:21;28.45;27.12
65884;HTU21D;52663;51.038;5.858;2022-08-07T14:58:50;28.47;27.11
65884;HTU21D;52663;51.038;5.858;2022-08-07T15:01:18;28.50;26.59
65884;HTU21D;52663;51.038;5.858;2022-08-07T15:03:48;28.57;26.97
65884;HTU21D;52663;51.038;5.858;2022-08-07T15:06:24;28.45;27.08
65884;HTU21D;52663;51.038;5.858;2022-08-07T15:08:51;28.56;27.10
65884;HTU21D;52663;51.038;5.858;2022-08-07T15:11:24;28.59;27.58
65884;HTU21D;52663;51.038;5.858;2022-08-07T15:13:58;28.45;27.69
65884;HTU21D;52663;51.038;5.858;2022-08-07T15:16:43;28.27;27.48
65884;HTU21D;52663;51.038;5.858;2022-08-07T15:19:14;28.16;27.93
65884;HTU21D;52663;51.038;5.858;2022-08-07T15:21:46;28.16;27.97
65884;HTU21D;52663;51.038;5.858;2022-08-07T15:24:20;28.20;28.05
65884;HTU21D;52663;51.038;5.858;2022-08-07T15:26:56;28.27;27.57
65884;HTU21D;52663;51.038;5.858;2022-08-07T15:29:38;28.26;27.62
65884;HTU21D;52663;51.038;5.858;2022-08-07T15:32:06;28.21;27.70
65884;HTU21D;52663;51.038;5.858;2022-08-07T15:34:45;28.23;27.76
65884;HTU21D;52663;51.038;5.858;2022-08-07T15:37:14;28.21;27.59
65884;HTU21D;52663;51.038;5.858;2022-08-07T15:39:53;28.16;27.58
65884;HTU21D;52663;51.038;5.858;2022-08-07T15:42:46;28.18;27.58
65884;HTU21D;52663;51.038;5.858;2022-08-07T15:47:58;27.94;28.08
65884;HTU21D;52663;51.038;5.858;2022-08-07T15:50:33;27.76;28.23
65884;HTU21D;52663;51.038;5.858;2022-08-07T15:53:08;27.65;28.69
65884;HTU21D;52663;51.038;5.858;2022-08-07T15:55:45;27.63;28.91
65884;HTU21D;52663;51.038;5.858;2022-08-07T15:58:22;27.49;29.07
65884;HTU21D;52663;51.038;5.858;2022-08-07T16:00:54;27.45;29.11
65884;HTU21D;52663;51.038;5.858;2022-08-07T16:03:25;27.45;29.26
65884;HTU21D;52663;51.038;5.858;2022-08-07T16:06:00;27.50;28.71
65884;HTU21D;52663;51.038;5.858;2022-08-07T16:08:29;27.54;28.79
65884;HTU21D;52663;51.038;5.858;2022-08-07T16:11:05;27.44;28.32
65884;HTU21D;52663;51.038;5.858;2022-08-07T16:13:49;27.24;28.80
65884;HTU21D;52663;51.038;5.858;2022-08-07T16:19:10;27.26;29.07
65884;HTU21D;52663;51.038;5.858;2022-08-07T16:21:51;27.23;29.16
65884;HTU21D;52663;51.038;5.858;2022-08-07T16:24:42;27.21;29.38
65884;HTU21D;52663;51.038;5.858;2022-08-07T16:27:37;27.12;29.61
65884;HTU21D;52663;51.038;5.858;2022-08-07T16:30:13;27.15;29.96
65884;HTU21D;52663;51.038;5.858;2022-08-07T16:32:48;27.22;29.64
65884;HTU21D;52663;51.038;5.858;2022-08-07T16:35:20;27.21;29.50
65884;HTU21D;52663;51.038;5.858;2022-08-07T16:38:18;27.16;29.36
65884;HTU21D;52663;51.038;5.858;2022-08-07T16:43:55;27.15;29.35
65884;HTU21D;52663;51.038;5.858;2022-08-07T16:47:05;26.98;29.67
65884;HTU21D;52663;51.038;5.858;2022-08-07T16:52:54;26.65;30.41
65884;HTU21D;52663;51.038;5.858;2022-08-07T16:55:47;26.64;30.60
65884;HTU21D;52663;51.038;5.858;2022-08-07T17:01:35;26.68;30.74
65884;HTU21D;52663;51.038;5.858;2022-08-07T17:03:50;26.61;30.85
65884;HTU21D;52663;51.038;5.858;2022-08-07T17:06:56;26.42;31.09
65884;HTU21D;52663;51.038;5.858;2022-08-07T17:09:51;26.32;31.40
65884;HTU21D;52663;51.038;5.858;2022-08-07T17:12:48;26.35;31.47
65884;HTU21D;52663;51.038;5.858;2022-08-07T17:15:35;26.26;31.73
65884;HTU21D;52663;51.038;5.858;2022-08-07T17:18:13;26.34;31.94
65884;HTU21D;52663;51.038;5.858;2022-08-07T17:20:44;26.31;32.15
65884;HTU21D;52663;51.038;5.858;2022-08-07T17:26:07;26.16;32.47
65884;HTU21D;52663;51.038;5.858;2022-08-07T17:32:00;26.03;32.96
65884;HTU21D;52663;51.038;5.858;2022-08-07T17:34:37;26.04;33.18
65884;HTU21D;52663;51.038;5.858;2022-08-07T17:37:13;26.04;33.25
65884;HTU21D;52663;51.038;5.858;2022-08-07T17:42:41;26.10;33.45
65884;HTU21D;52663;51.038;5.858;2022-08-07T17:45:11;26.07;33.35
65884;HTU21D;52663;51.038;5.858;2022-08-07T17:47:56;25.99;33.13
65884;HTU21D;52663;51.038;5.858;2022-08-07T17:50:48;25.89;33.14
65884;HTU21D;52663;51.038;5.858;2022-08-07T17:54:06;25.79;33.51
65884;HTU21D;52663;51.038;5.858;2022-08-07T17:56:30;25.83;33.47
65884;HTU21D;52663;51.038;5.858;2022-08-07T18:04:52;25.71;33.38
65884;HTU21D;52663;51.038;5.858;2022-08-07T18:07:30;25.61;33.61
65884;HTU21D;52663;51.038;5.858;2022-08-07T18:13:12;25.50;33.93
65884;HTU21D;52663;51.038;5.858;2022-08-07T18:16:00;25.50;34.00
65884;HTU21D;52663;51.038;5.858;2022-08-07T18:18:31;25.56;33.95
65884;HTU21D;52663;51.038;5.858;2022-08-07T18:21:27;25.49;34.14
65884;HTU21D;52663;51.038;5.858;2022-08-07T18:29:18;25.34;34.77
65884;HTU21D;52663;51.038;5.858;2022-08-07T18:34:44;25.25;35.21
65884;HTU21D;52663;51.038;5.858;2022-08-07T18:37:44;25.25;35.18
65884;HTU21D;52663;51.038;5.858;2022-08-07T18:40:18;25.21;35.20
65884;HTU21D;52663;51.038;5.858;2022-08-07T18:43:02;25.10;35.38
65884;HTU21D;52663;51.038;5.858;2022-08-07T18:45:46;25.00;35.59
65884;HTU21D;52663;51.038;5.858;2022-08-07T18:48:46;24.92;35.73
65884;HTU21D;52663;51.038;5.858;2022-08-07T18:54:21;24.79;36.09
65884;HTU21D;52663;51.038;5.858;2022-08-07T19:02:34;24.77;36.42
65884;HTU21D;52663;51.038;5.858;2022-08-07T19:05:21;24.70;36.70